Time;durP1;ratioP1;P1;durP2;ratioP2;P2;SDS_P1;SDS_P2;PMS_P1;PMS_P2;Temp;Humidity;BMP_temperature;BMP_pressure;BME280_temperature;BME280_humidity;BME280_pressure;Samples;Min_cycle;Max_cycle;Signal;HPM_P1;HPM_P2
2021/01/12 00:00:28;;;;;;;186.90;69.60;;;26.40;2201.60;;;;;;4997045;28;20029;-76
2021/01/12 00:02:56;;;;;;;177.70;66.13;;;26.40;2201.60;;;;;;5029572;28;20485;-76
2021/01/12 00:05:22;;;;;;;176.03;65.63;;;26.40;2201.60;;;;;;5016126;28;20128;-76
2021/01/12 00:07:49;;;;;;;176.63;67.03;;;26.30;2201.60;;;;;;5016796;28;20088;-76
2021/01/12 00:10:20;;;;;;;179.10;66.40;;;26.40;2201.60;;;;;;5012653;28;20046;-76
2021/01/12 00:12:46;;;;;;;174.40;65.20;;;26.40;2201.60;;;;;;5013108;28;20053;-76
2021/01/12 00:15:12;;;;;;;170.80;64.00;;;26.40;2201.60;;;;;;5012951;28;20018;-75
2021/01/12 00:17:38;;;;;;;181.37;64.33;;;51.70;2227.20;;;;;;5012553;28;20101;-76
2021/01/12 00:20:07;;;;;;;182.10;65.77;;;26.30;2201.60;;;;;;5012816;28;20108;-76
2021/01/12 00:22:33;;;;;;;169.50;62.80;;;26.30;2201.60;;;;;;5013839;28;20541;-75
2021/01/12 00:24:59;;;;;;;178.00;66.47;;;26.30;2201.60;;;;;;5012418;28;20034;-77
2021/01/12 00:27:24;;;;;;;212.77;71.47;;;26.30;2201.60;;;;;;4992882;28;20054;-76
2021/01/12 00:29:51;;;;;;;171.73;66.70;;;26.30;2201.60;;;;;;4993181;28;20133;-75
2021/01/12 00:32:24;;;;;;;165.90;66.27;;;26.30;2201.60;;;;;;4993075;28;20383;-76
2021/01/12 00:34:52;;;;;;;154.47;61.90;;;26.40;2201.60;;;;;;4994184;28;20033;-75
2021/01/12 00:37:23;;;;;;;168.37;63.00;;;26.40;2201.60;;;;;;4994072;28;20465;-75
2021/01/12 00:39:50;;;;;;;152.20;61.23;;;26.30;2201.60;;;;;;4994049;28;20030;-75
2021/01/12 00:42:16;;;;;;;153.97;62.07;;;26.50;2201.60;;;;;;4993021;28;20019;-75
2021/01/12 00:44:42;;;;;;;166.03;63.27;;;26.40;2201.60;;;;;;4992593;28;20372;-75
2021/01/12 00:47:10;;;;;;;170.17;66.17;;;26.20;2201.60;;;;;;4992656;28;20033;-76
2021/01/12 00:49:37;;;;;;;167.47;65.70;;;26.30;2201.60;;;;;;4992771;28;20023;-75
2021/01/12 00:52:10;;;;;;;178.87;67.73;;;26.30;2201.60;;;;;;4994155;28;20027;-75
2021/01/12 00:54:36;;;;;;;171.77;68.60;;;26.40;2201.60;;;;;;4993765;28;20033;-76
2021/01/12 00:57:02;;;;;;;214.97;90.57;;;26.30;2201.60;;;;;;4993775;28;20026;-76
2021/01/12 00:59:28;;;;;;;214.23;91.63;;;26.30;2201.60;;;;;;4993955;28;20092;-75
2021/01/12 01:01:59;;;;;;;226.37;92.83;;;26.30;2201.60;;;;;;4992426;28;20030;-75
2021/01/12 01:04:25;;;;;;;216.67;92.13;;;26.30;2201.60;;;;;;4992713;28;20042;-75
2021/01/12 01:06:52;;;;;;;234.70;92.10;;;26.30;2201.60;;;;;;4993308;28;20109;-75
2021/01/12 01:09:18;;;;;;;253.90;97.23;;;26.30;2201.60;;;;;;4993267;28;20073;-75
2021/01/12 01:11:45;;;;;;;234.10;92.90;;;26.30;2201.60;;;;;;5013113;28;20062;-75
2021/01/12 01:14:11;;;;;;;207.90;84.20;;;26.30;2201.60;;;;;;4995723;28;20036;-75
2021/01/12 01:16:38;;;;;;;229.90;88.73;;;26.30;2201.60;;;;;;5012860;28;20029;-75
2021/01/12 01:19:05;;;;;;;202.23;79.17;;;26.00;2201.60;;;;;;4995670;28;20057;-76
2021/01/12 01:21:31;;;;;;;214.90;80.67;;;26.20;2201.60;;;;;;4995487;28;20026;-76
2021/01/12 01:23:57;;;;;;;209.43;74.90;;;26.30;2201.60;;;;;;5012899;28;20084;-76
2021/01/12 01:26:22;;;;;;;202.33;77.93;;;26.30;2201.60;;;;;;4995498;28;20076;-75
2021/01/12 01:28:48;;;;;;;204.87;78.77;;;26.30;2201.60;;;;;;5012747;28;20332;-75
2021/01/12 01:31:15;;;;;;;218.03;81.17;;;26.20;2201.60;;;;;;4995518;28;20375;-75
2021/01/12 01:33:41;;;;;;;223.10;78.87;;;26.30;2201.60;;;;;;5012644;28;20537;-75
2021/01/12 01:36:10;;;;;;;226.37;77.63;;;26.20;2201.60;;;;;;4995597;28;20037;-75
2021/01/12 01:38:37;;;;;;;232.03;81.37;;;26.20;2201.60;;;;;;4994866;28;20022;-76
2021/01/12 01:41:05;;;;;;;242.50;83.30;;;26.20;2201.60;;;;;;5012895;28;20471;-76
2021/01/12 01:43:31;;;;;;;259.67;90.20;;;26.30;2201.60;;;;;;4995173;28;20030;-76
2021/01/12 01:45:58;;;;;;;275.27;92.90;;;26.10;2201.60;;;;;;4995212;28;20026;-76
2021/01/12 01:48:24;;;;;;;249.77;87.60;;;26.20;2201.60;;;;;;4995183;28;20033;-75
2021/01/12 01:50:50;;;;;;;258.30;85.93;;;26.30;2201.60;;;;;;5012486;28;20029;-75
2021/01/12 01:53:16;;;;;;;249.53;85.33;;;26.30;2201.60;;;;;;4995240;28;20025;-75
2021/01/12 01:55:43;;;;;;;229.20;83.73;;;26.30;2201.60;;;;;;4994829;28;20124;-75
2021/01/12 01:58:09;;;;;;;300.23;93.90;;;26.20;2201.60;;;;;;5012848;28;20104;-75
2021/01/12 02:00:36;;;;;;;293.90;93.30;;;26.30;2201.60;;;;;;4994847;28;20168;-75
2021/01/12 02:03:21;;;;;;;281.30;89.37;;;26.30;2201.60;;;;;;4995162;28;20022;-75
2021/01/12 02:05:57;;;;;;;258.53;81.60;;;26.30;2201.60;;;;;;4994894;28;20132;-75
2021/01/12 02:08:28;;;;;;;297.83;88.53;;;26.30;2201.60;;;;;;5012474;28;20026;-75
2021/01/12 02:10:59;;;;;;;246.13;82.67;;;26.40;2201.60;;;;;;4994850;28;20503;-75
2021/01/12 02:13:31;;;;;;;298.07;86.67;;;26.30;2201.60;;;;;;4995090;28;20026;-75
2021/01/12 02:16:01;;;;;;;300.30;90.90;;;26.40;2201.60;;;;;;4995111;28;20101;-75
2021/01/12 02:18:33;;;;;;;286.70;92.27;;;26.40;2201.60;;;;;;5012115;28;20379;-75
2021/01/12 02:21:03;;;;;;;291.93;94.47;;;26.40;2201.60;;;;;;4997642;28;20034;-75
2021/01/12 02:23:34;;;;;;;270.33;96.20;;;26.40;2201.60;;;;;;4997926;28;20026;-75
2021/01/12 02:26:01;;;;;;;356.70;100.33;;;26.30;2201.60;;;;;;4998734;28;20037;-75
2021/01/12 02:28:27;;;;;;;262.53;90.47;;;51.20;2227.20;;;;;;4997993;28;20390;-75
2021/01/12 02:30:53;;;;;;;304.03;97.63;;;26.30;2201.60;;;;;;4998679;28;20044;-75
2021/01/12 02:33:19;;;;;;;330.13;100.37;;;26.30;2201.60;;;;;;5015770;28;20026;-75
2021/01/12 02:35:47;;;;;;;282.87;93.53;;;26.20;2201.60;;;;;;4998323;28;20061;-75
2021/01/12 02:38:13;;;;;;;295.60;96.43;;;26.30;2201.60;;;;;;5015736;28;20080;-75
2021/01/12 02:40:39;;;;;;;263.23;91.83;;;26.20;2201.60;;;;;;4998054;28;20054;-75
2021/01/12 02:43:05;;;;;;;259.07;87.33;;;26.30;2201.60;;;;;;5015826;28;20041;-75
2021/01/12 02:45:31;;;;;;;262.33;88.10;;;26.30;2201.60;;;;;;4997841;28;20121;-75
2021/01/12 02:47:58;;;;;;;253.10;95.03;;;26.20;2201.60;;;;;;4998078;28;20076;-75
2021/01/12 02:50:24;;;;;;;312.17;101.97;;;26.30;2201.60;;;;;;5015464;28;20029;-75
2021/01/12 02:52:51;;;;;;;316.13;102.33;;;26.30;2201.60;;;;;;4998244;28;20028;-75
2021/01/12 02:55:17;;;;;;;328.80;109.97;;;26.20;2201.60;;;;;;4997675;28;20026;-75
2021/01/12 02:57:42;;;;;;;292.83;97.43;;;26.30;2201.60;;;;;;5015396;28;20360;-75
2021/01/12 03:00:14;;;;;;;272.53;89.83;;;26.30;2201.60;;;;;;5015425;28;20433;-75
2021/01/12 03:02:40;;;;;;;259.80;89.43;;;26.30;2201.60;;;;;;5015314;28;20072;-75
2021/01/12 03:05:07;;;;;;;275.23;92.43;;;26.30;2201.60;;;;;;4997543;28;20030;-75
2021/01/12 03:07:34;;;;;;;255.03;88.60;;;26.30;2201.60;;;;;;5014963;28;20025;-75
2021/01/12 03:10:00;;;;;;;272.23;89.03;;;26.40;2201.60;;;;;;4994109;28;20051;-75
2021/01/12 03:12:26;;;;;;;230.33;80.60;;;26.30;2201.60;;;;;;4995285;28;20026;-75
2021/01/12 03:14:52;;;;;;;232.57;82.17;;;26.30;2201.60;;;;;;4995810;28;20022;-75
2021/01/12 03:17:19;;;;;;;218.83;83.07;;;26.30;2201.60;;;;;;4995286;28;20085;-75
2021/01/12 03:19:45;;;;;;;245.03;82.20;;;26.30;2201.60;;;;;;4994082;28;20030;-75
2021/01/12 03:22:12;;;;;;;212.67;79.17;;;26.30;2201.60;;;;;;4994215;28;20022;-75
2021/01/12 03:24:38;;;;;;;211.07;83.03;;;26.40;2201.60;;;;;;4995120;28;20069;-75
2021/01/12 03:27:05;;;;;;;264.20;89.47;;;26.30;2201.60;;;;;;4994175;28;20022;-75
2021/01/12 03:29:32;;;;;;;252.23;89.57;;;26.30;2201.60;;;;;;4994852;28;20049;-75
2021/01/12 03:31:57;;;;;;;256.53;87.57;;;26.30;2201.60;;;;;;4993425;28;20029;-75
2021/01/12 03:34:24;;;;;;;251.00;88.90;;;26.30;2201.60;;;;;;4993552;28;20030;-75
2021/01/12 03:36:50;;;;;;;280.87;91.03;;;26.30;2201.60;;;;;;4994054;28;20088;-75
2021/01/12 03:39:16;;;;;;;241.33;92.50;;;26.30;2201.60;;;;;;4994652;28;20030;-75
2021/01/12 03:41:42;;;;;;;255.10;85.87;;;26.20;2201.60;;;;;;4995057;28;20023;-75
2021/01/12 03:44:07;;;;;;;259.60;86.07;;;26.20;2201.60;;;;;;4993772;28;20039;-76
2021/01/12 03:46:33;;;;;;;240.97;84.30;;;26.20;2201.60;;;;;;4994855;28;20034;-75
2021/01/12 03:48:59;;;;;;;236.60;84.37;;;26.30;2201.60;;;;;;4994884;28;20034;-76
2021/01/12 03:51:25;;;;;;;242.20;84.27;;;26.30;2201.60;;;;;;4993443;28;20026;-75
2021/01/12 03:53:52;;;;;;;235.87;81.37;;;26.30;2201.60;;;;;;4995069;28;20019;-75
2021/01/12 03:56:18;;;;;;;276.17;88.20;;;26.30;2201.60;;;;;;4993401;28;20105;-75
2021/01/12 03:58:44;;;;;;;251.17;81.23;;;26.30;2201.60;;;;;;4998069;28;20030;-75
2021/01/12 04:01:14;;;;;;;278.10;85.07;;;26.30;2201.60;;;;;;4993163;28;20027;-75
2021/01/12 04:03:41;;;;;;;262.83;80.53;;;26.30;2201.60;;;;;;4994591;28;20106;-75
2021/01/12 04:06:16;;;;;;;252.90;79.07;;;26.30;2201.60;;;;;;4993346;28;20034;-76
2021/01/12 04:08:45;;;;;;;200.10;68.40;;;26.30;2201.60;;;;;;4993308;28;20050;-75
2021/01/12 04:11:17;;;;;;;218.03;74.80;;;26.30;2201.60;;;;;;5011208;28;20050;-76
2021/01/12 04:13:43;;;;;;;235.73;76.33;;;26.20;2201.60;;;;;;5014090;28;20030;-75
2021/01/12 04:16:09;;;;;;;224.90;76.60;;;26.20;2201.60;;;;;;5014244;28;20018;-75
2021/01/12 04:18:35;;;;;;;221.67;77.53;;;26.20;2201.60;;;;;;5013631;28;20029;-75
2021/01/12 04:21:01;;;;;;;203.27;74.03;;;26.30;2201.60;;;;;;4996149;28;20026;-75
2021/01/12 04:23:27;;;;;;;194.20;68.50;;;26.30;2201.60;;;;;;5013668;28;20077;-75
2021/01/12 04:25:53;;;;;;;188.53;70.00;;;26.30;2201.60;;;;;;5013936;28;20025;-75
2021/01/12 04:28:19;;;;;;;217.60;73.30;;;26.30;2201.60;;;;;;5013819;28;20084;-75
2021/01/12 04:30:45;;;;;;;208.77;72.33;;;26.30;2201.60;;;;;;5013591;28;20025;-75
2021/01/12 04:33:11;;;;;;;202.60;71.93;;;26.30;2201.60;;;;;;4996295;28;20026;-75
2021/01/12 04:35:37;;;;;;;197.50;66.27;;;26.30;2201.60;;;;;;5013454;28;20018;-75
2021/01/12 04:38:03;;;;;;;170.63;64.90;;;26.30;2201.60;;;;;;5013756;28;20379;-75
2021/01/12 04:40:29;;;;;;;171.37;63.50;;;26.30;2201.60;;;;;;5013169;28;20033;-76
2021/01/12 04:42:58;;;;;;;176.17;67.97;;;26.30;2201.60;;;;;;5013685;28;20022;-75
2021/01/12 04:45:25;;;;;;;172.10;64.67;;;26.30;2201.60;;;;;;5013202;28;20034;-75
2021/01/12 04:47:51;;;;;;;173.13;64.43;;;26.30;2201.60;;;;;;5013506;28;20022;-75
2021/01/12 04:50:17;;;;;;;183.27;65.43;;;26.30;2201.60;;;;;;4995619;28;20033;-75
2021/01/12 04:52:48;;;;;;;199.40;72.13;;;26.30;2201.60;;;;;;4995650;28;20567;-75
2021/01/12 04:55:15;;;;;;;187.03;66.37;;;26.30;2201.60;;;;;;5013412;28;20034;-75
2021/01/12 04:57:41;;;;;;;172.50;65.13;;;26.30;2201.60;;;;;;4995344;28;20026;-75
2021/01/12 05:00:15;;;;;;;186.30;64.27;;;26.40;2201.60;;;;;;5013276;28;20029;-75
2021/01/12 05:02:41;;;;;;;203.23;72.95;;;26.30;2201.60;;;;;;4995361;28;20026;-75
2021/01/12 05:05:08;;;;;;;186.17;66.23;;;26.30;2201.60;;;;;;4995499;28;20042;-75
2021/01/12 05:07:38;;;;;;;180.47;63.27;;;26.40;2201.60;;;;;;4995343;28;20049;-76
2021/01/12 05:10:11;;;;;;;171.93;62.03;;;26.30;2201.60;;;;;;4995231;28;20145;-76
2021/01/12 05:12:40;;;;;;;157.95;65.70;;;26.40;2201.60;;;;;;5013003;28;20097;-75
2021/01/12 05:15:11;;;;;;;164.63;61.57;;;26.30;2201.60;;;;;;5013091;28;20026;-75
2021/01/12 05:17:37;;;;;;;163.70;59.70;;;26.30;2201.60;;;;;;5012897;28;20060;-75
2021/01/12 05:20:05;;;;;;;158.87;59.87;;;26.40;2201.60;;;;;;4995136;28;20113;-75
2021/01/12 05:22:38;;;;;;;183.53;61.27;;;26.40;2201.60;;;;;;4995454;28;20033;-75
2021/01/12 05:25:21;;;;;;;161.30;59.92;;;26.40;2201.60;;;;;;5012702;28;20108;-75
2021/01/12 05:27:52;;;;;;;170.02;59.67;;;26.40;2201.60;;;;;;4995513;28;20033;-75
2021/01/12 05:30:26;;;;;;;180.50;62.30;;;26.40;2201.60;;;;;;4994899;28;20084;-76
2021/01/12 05:32:53;;;;;;;166.55;59.53;;;26.40;2201.60;;;;;;4995418;28;20108;-75
2021/01/12 05:35:20;;;;;;;167.13;61.27;;;26.40;2201.60;;;;;;5012502;28;20018;-75
2021/01/12 05:37:46;;;;;;;181.83;62.03;;;26.40;2201.60;;;;;;4995415;28;20359;-75
2021/01/12 05:40:13;;;;;;;183.40;62.23;;;26.40;2201.60;;;;;;5012638;28;20040;-75
2021/01/12 05:42:39;;;;;;;185.77;59.93;;;26.40;2201.60;;;;;;4995107;28;20037;-75
2021/01/12 05:45:07;;;;;;;315.80;161.90;;;26.40;2201.60;;;;;;5012575;28;20168;-75
2021/01/12 05:47:33;;;;;;;237.50;105.57;;;26.50;2201.60;;;;;;4995184;28;20026;-75
2021/01/12 05:49:59;;;;;;;220.00;86.13;;;26.50;2201.60;;;;;;5012954;28;20485;-75
2021/01/12 05:52:26;;;;;;;224.83;81.80;;;26.40;2201.60;;;;;;4994592;28;20478;-75
2021/01/12 05:55:05;;;;;;;210.53;83.23;;;26.50;2201.60;;;;;;4996139;28;20034;-75
2021/01/12 05:57:36;;;;;;;171.67;64.63;;;26.50;2201.60;;;;;;4998782;28;20065;-75
2021/01/12 06:00:05;;;;;;;187.43;65.67;;;26.50;2201.60;;;;;;5016831;28;20084;-75
2021/01/12 06:02:32;;;;;;;163.03;60.97;;;26.50;2201.60;;;;;;4998345;28;20022;-75
2021/01/12 06:04:59;;;;;;;159.07;57.43;;;26.50;2201.60;;;;;;5016519;28;20045;-75
2021/01/12 06:07:26;;;;;;;159.67;61.23;;;51.70;2227.20;;;;;;5016289;28;20026;-75
2021/01/12 06:09:54;;;;;;;159.77;61.73;;;26.50;2201.60;;;;;;5016147;28;20111;-75
2021/01/12 06:12:24;;;;;;;164.40;60.23;;;26.40;2201.60;;;;;;4998498;28;20029;-75
2021/01/12 06:14:51;;;;;;;169.57;60.20;;;26.40;2201.60;;;;;;4998673;28;20026;-75
2021/01/12 06:17:18;;;;;;;168.80;63.47;;;26.40;2201.60;;;;;;5016461;28;20132;-75
2021/01/12 06:19:48;;;;;;;189.63;63.53;;;26.40;2201.60;;;;;;5015935;28;20042;-75
2021/01/12 06:22:24;;;;;;;249.63;80.10;;;26.40;2201.60;;;;;;4998630;28;20029;-75
2021/01/12 06:25:03;;;;;;;297.53;91.17;;;26.40;2201.60;;;;;;4998165;28;20049;-75
2021/01/12 06:27:31;;;;;;;335.83;116.87;;;26.40;2201.60;;;;;;5016226;28;20112;-75
2021/01/12 06:30:05;;;;;;;406.10;174.07;;;26.40;2201.60;;;;;;5015649;28;20481;-75
2021/01/12 06:32:32;;;;;;;;;;;26.40;2201.60;;;;;;4998901;28;20022;-75
2021/01/12 06:35:00;;;;;;;248.80;102.30;;;26.30;2201.60;;;;;;5015674;28;20345;-75
2021/01/12 06:37:27;;;;;;;252.27;103.00;;;26.30;2201.60;;;;;;4998368;28;20022;-76
2021/01/12 06:40:01;;;;;;;357.80;138.23;;;26.40;2201.60;;;;;;4998220;28;20025;-75
2021/01/12 06:42:29;;;;;;;242.53;109.93;;;26.30;2201.60;;;;;;4997810;28;20537;-75
2021/01/12 06:44:56;;;;;;;220.00;98.13;;;26.40;2201.60;;;;;;5015811;28;20033;-75
2021/01/12 06:47:27;;;;;;;230.87;97.47;;;26.40;2201.60;;;;;;5015340;28;20097;-75
2021/01/12 06:50:13;;;;;;;228.20;88.13;;;26.40;2201.60;;;;;;5015842;28;20058;-74
2021/01/12 06:52:44;;;;;;;228.60;87.97;;;26.50;2201.60;;;;;;4997516;28;20157;-75
2021/01/12 06:55:13;;;;;;;269.63;98.00;;;51.20;2227.20;;;;;;5015601;28;20037;-75
2021/01/12 06:57:43;;;;;;;270.63;93.90;;;26.50;2201.60;;;;;;4997775;28;20386;-75
2021/01/12 07:00:09;;;;;;;218.57;79.00;;;26.50;2201.60;;;;;;4997693;28;20030;-75
2021/01/12 07:02:36;;;;;;;207.93;76.30;;;26.50;2201.60;;;;;;4997408;28;20117;-75
2021/01/12 07:05:13;;;;;;;200.80;77.30;;;26.40;2201.60;;;;;;5015241;28;20084;-75
2021/01/12 07:07:39;;;;;;;245.67;95.40;;;26.40;2201.60;;;;;;5014178;28;20019;-75
2021/01/12 07:10:08;;;;;;;211.77;86.13;;;26.40;2201.60;;;;;;5015046;28;20402;-75
2021/01/12 07:12:34;;;;;;;210.77;76.20;;;26.50;2201.60;;;;;;5015136;28;20047;-76
2021/01/12 07:15:05;;;;;;;230.67;92.07;;;26.40;2201.60;;;;;;5014967;28;20029;-75
2021/01/12 07:17:52;;;;;;;214.70;82.43;;;26.50;2201.60;;;;;;5015268;28;20049;-75
2021/01/12 07:20:22;;;;;;;208.30;76.53;;;51.20;2227.20;;;;;;5014401;28;20030;-75
2021/01/12 07:22:55;;;;;;;186.73;76.50;;;51.20;2227.20;;;;;;5015055;28;20022;-74
2021/01/12 07:25:27;;;;;;;152.50;66.23;;;51.20;2227.20;;;;;;5014494;28;20084;-75
2021/01/12 07:28:17;;;;;;;165.87;72.00;;;26.50;2201.60;;;;;;4997555;28;20108;-75
2021/01/12 07:30:47;;;;;;;156.03;69.87;;;51.20;2227.20;;;;;;5004911;28;20042;-75
2021/01/12 07:33:15;;;;;;;154.33;67.60;;;51.20;2227.20;;;;;;5014409;28;20085;-75
2021/01/12 07:35:41;;;;;;;145.20;70.70;;;26.50;2201.60;;;;;;4996856;28;20057;-75
2021/01/12 07:38:07;;;;;;;151.07;68.23;;;26.50;2201.60;;;;;;5014561;28;20474;-75
2021/01/12 07:40:34;;;;;;;160.67;74.20;;;51.20;2227.20;;;;;;5014302;28;20068;-75
2021/01/12 07:43:01;;;;;;;166.33;72.57;;;51.20;2227.20;;;;;;4996732;28;20026;-75
2021/01/12 07:45:30;;;;;;;156.47;75.70;;;51.30;2227.20;;;;;;4996810;28;20120;-75
2021/01/12 07:47:58;;;;;;;168.17;75.57;;;51.20;2227.20;;;;;;4996721;28;20048;-75
2021/01/12 07:50:25;;;;;;;156.33;70.40;;;51.30;2227.20;;;;;;5014368;28;20083;-75
2021/01/12 07:52:52;;;;;;;158.10;70.33;;;51.40;2227.20;;;;;;5014093;28;20034;-75
2021/01/12 07:55:18;;;;;;;139.57;67.13;;;51.40;2227.20;;;;;;4997111;28;20125;-75
2021/01/12 07:57:46;;;;;;;147.77;73.10;;;51.30;2227.20;;;;;;5014087;28;20034;-75
2021/01/12 08:00:13;;;;;;;157.83;76.63;;;51.30;2227.20;;;;;;4996600;28;20026;-75
2021/01/12 08:02:42;;;;;;;148.67;73.53;;;51.30;2227.20;;;;;;5014108;28;20061;-75
2021/01/12 08:05:10;;;;;;;153.80;79.70;;;51.40;2227.20;;;;;;5013805;28;20037;-75
2021/01/12 08:07:36;;;;;;;160.40;77.13;;;51.40;2227.20;;;;;;5014395;28;20509;-75
2021/01/12 08:10:04;;;;;;;147.43;70.17;;;51.40;2227.20;;;;;;5013765;28;20049;-75
2021/01/12 08:12:30;;;;;;;158.63;70.03;;;51.40;2227.20;;;;;;4996699;28;20076;-75
2021/01/12 08:15:16;;;;;;;138.20;62.50;;;51.40;2227.20;;;;;;5013640;28;20034;-75
2021/01/12 08:17:49;;;;;;;143.17;64.93;;;51.40;2227.20;;;;;;4996482;28;20022;-75
2021/01/12 08:20:17;;;;;;;166.20;75.90;;;51.40;2227.20;;;;;;5013793;28;20052;-75
2021/01/12 08:22:50;;;;;;;141.07;61.43;;;51.50;2227.20;;;;;;5014197;28;20022;-75
2021/01/12 08:25:16;;;;;;;145.82;65.88;;;51.40;2227.20;;;;;;4995527;28;20040;-75
2021/01/12 08:27:50;;;;;;;150.10;72.07;;;51.50;2227.20;;;;;;4996485;28;20483;-75
2021/01/12 08:30:24;;;;;;;155.23;68.88;;;51.40;2227.20;;;;;;4996209;28;20029;-75
2021/01/12 08:33:13;;;;;;;170.37;79.30;;;51.50;2227.20;;;;;;5013950;28;20064;-75
2021/01/12 08:35:44;;;;;;;166.70;76.63;;;51.50;2227.20;;;;;;5003284;28;20092;-75
2021/01/12 08:38:13;;;;;;;148.27;66.47;;;51.50;2227.20;;;;;;5013945;28;20084;-75
2021/01/12 08:40:41;;;;;;;144.23;65.40;;;51.60;2227.20;;;;;;5013858;28;20068;-75
2021/01/12 08:43:18;;;;;;;162.23;75.97;;;51.50;2227.20;;;;;;5013532;28;20501;-75
2021/01/12 08:45:45;;;;;;;137.87;60.03;;;51.40;2227.20;;;;;;4996009;28;20038;-75
2021/01/12 08:48:19;;;;;;;197.67;101.57;;;51.50;2227.20;;;;;;5013413;28;20021;-75
2021/01/12 08:50:46;;;;;;;709.20;411.27;;;51.60;2227.20;;;;;;4996155;28;20047;-75
2021/01/12 08:53:25;;;;;;;538.97;314.27;;;51.60;2227.20;;;;;;4995579;28;20022;-75
2021/01/12 08:55:51;;;;;;;183.63;88.77;;;51.60;2227.20;;;;;;5013594;28;20025;-75
2021/01/12 08:58:18;;;;;;;172.00;81.53;;;51.60;2227.20;;;;;;4995556;28;20022;-75
2021/01/12 09:00:44;;;;;;;164.27;76.50;;;51.60;2227.20;;;;;;4995982;28;20022;-75
2021/01/12 09:03:13;;;;;;;146.83;67.53;;;51.70;2227.20;;;;;;4995459;28;20137;-74
2021/01/12 09:05:41;;;;;;;121.93;56.60;;;51.70;2227.20;;;;;;4995475;28;20128;-75
2021/01/12 09:08:12;;;;;;;124.83;58.77;;;51.80;2227.20;;;;;;4995795;28;20022;-75
2021/01/12 09:10:41;;;;;;;279.50;147.10;;;51.80;2227.20;;;;;;5013971;28;20054;-74
2021/01/12 09:13:10;;;;;;;154.83;65.33;;;51.80;2227.20;;;;;;5017657;28;20075;-75
2021/01/12 09:15:38;;;;;;;267.50;156.00;;;51.80;2227.20;;;;;;5012617;28;20022;-75
2021/01/12 09:18:08;;;;;;;196.23;108.33;;;51.90;2227.20;;;;;;5015817;28;20033;-75
2021/01/12 09:20:38;;;;;;;171.33;94.33;;;51.90;2227.20;;;;;;5022520;28;20061;-75
2021/01/12 09:23:06;;;;;;;164.00;72.93;;;51.90;2227.20;;;;;;5021087;28;20022;-75
2021/01/12 09:25:33;;;;;;;157.93;72.87;;;52.00;2227.20;;;;;;5022193;28;20032;-75
2021/01/12 09:28:31;;;;;;;163.80;77.27;;;51.90;2227.20;;;;;;5005527;28;20022;-78
2021/01/12 09:31:04;;;;;;;146.10;68.93;;;52.00;2227.20;;;;;;4922444;29;20070;-75
2021/01/12 09:33:30;;;;;;;126.07;59.33;;;52.00;2227.20;;;;;;4933255;29;20094;-74
2021/01/12 09:36:13;;;;;;;124.70;59.27;;;52.00;2227.20;;;;;;4932903;29;20525;-75
2021/01/12 09:38:44;;;;;;;136.17;60.57;;;51.90;2227.20;;;;;;4933125;29;20046;-74
2021/01/12 09:41:11;;;;;;;130.20;57.47;;;52.00;2227.20;;;;;;4932587;29;20374;-75
2021/01/12 09:43:38;;;;;;;160.87;71.17;;;51.90;2227.20;;;;;;4932850;29;20489;-75
2021/01/12 09:46:04;;;;;;;127.63;55.73;;;51.90;2227.20;;;;;;4917259;29;20027;-75
2021/01/12 09:48:30;;;;;;;138.37;58.50;;;51.90;2227.20;;;;;;4932357;29;20039;-75
2021/01/12 09:50:56;;;;;;;131.63;59.03;;;51.90;2227.20;;;;;;4917208;29;20028;-75
2021/01/12 09:53:26;;;;;;;132.63;57.70;;;51.90;2227.20;;;;;;4916753;29;20028;-75
2021/01/12 09:55:51;;;;;;;159.73;64.60;;;51.80;2227.20;;;;;;4933276;29;20040;-74
2021/01/12 09:58:17;;;;;;;165.20;68.57;;;52.00;2227.20;;;;;;4932988;29;20489;-75
2021/01/12 10:00:43;;;;;;;161.90;67.77;;;52.00;2227.20;;;;;;4933138;29;20047;-75
2021/01/12 10:03:10;;;;;;;384.60;149.77;;;52.10;2227.20;;;;;;4917048;29;20396;-75
2021/01/12 10:05:40;;;;;;;348.53;156.90;;;52.00;2227.20;;;;;;4916502;29;20036;-75
2021/01/12 10:08:07;;;;;;;265.10;123.10;;;51.90;2227.20;;;;;;4988379;28;20106;-75
2021/01/12 10:10:34;;;;;;;341.37;162.50;;;52.00;2227.20;;;;;;4994655;28;20077;-74
2021/01/12 10:13:00;;;;;;;287.77;156.50;;;51.90;2227.20;;;;;;5017473;28;20492;-74
2021/01/12 10:15:26;;;;;;;185.17;103.37;;;52.00;2227.20;;;;;;5014145;28;20026;-74
2021/01/12 10:17:52;;;;;;;177.30;90.93;;;51.90;2227.20;;;;;;5023003;28;20045;-76
2021/01/12 10:20:18;;;;;;;143.93;73.27;;;52.00;2227.20;;;;;;5012306;28;20045;-75
2021/01/12 10:22:44;;;;;;;195.07;90.53;;;52.00;2227.20;;;;;;4995109;28;20041;-74
2021/01/12 10:25:11;;;;;;;169.53;81.67;;;52.00;2227.20;;;;;;5027179;28;20486;-75
2021/01/12 10:27:38;;;;;;;175.97;89.43;;;52.00;2227.20;;;;;;5014255;28;20363;-74
2021/01/12 10:30:06;;;;;;;158.73;85.83;;;52.10;2227.20;;;;;;5005467;28;20119;-75
2021/01/12 10:32:32;;;;;;;170.10;93.93;;;52.10;2227.20;;;;;;5017245;28;20022;-75
2021/01/12 10:34:58;;;;;;;171.83;91.97;;;52.10;2227.20;;;;;;5014515;28;20041;-78
2021/01/12 10:37:24;;;;;;;260.73;130.73;;;52.10;2227.20;;;;;;5015176;28;20474;-74
2021/01/12 10:39:50;;;;;;;234.20;117.40;;;52.10;2227.20;;;;;;5032214;28;20064;-75
2021/01/12 10:42:17;;;;;;;402.13;192.57;;;52.10;2227.20;;;;;;5016992;28;20032;-76
2021/01/12 10:44:43;;;;;;;297.23;143.23;;;52.10;2227.20;;;;;;5011557;28;20038;-74
2021/01/12 10:47:09;;;;;;;234.57;106.40;;;52.10;2227.20;;;;;;4997953;28;20029;-74
2021/01/12 10:49:35;;;;;;;213.37;100.70;;;52.10;2227.20;;;;;;5015734;28;20072;-74
2021/01/12 10:52:03;;;;;;;203.97;96.30;;;52.10;2227.20;;;;;;5016282;28;20033;-74
2021/01/12 10:54:29;;;;;;;186.73;87.93;;;52.10;2227.20;;;;;;4997364;28;20049;-75
2021/01/12 10:56:56;;;;;;;214.97;100.63;;;52.10;2227.20;;;;;;5017135;28;20478;-77
2021/01/12 10:59:26;;;;;;;247.03;115.63;;;52.10;2227.20;;;;;;5016959;28;20076;-76
2021/01/12 11:01:57;;;;;;;518.27;225.77;;;76.80;2227.20;;;;;;5016546;28;20076;-75
2021/01/12 11:04:23;;;;;;;896.60;398.43;;;76.80;2227.20;;;;;;4999172;28;20037;-76
2021/01/12 11:06:55;;;;;;;813.00;356.67;;;76.90;2227.20;;;;;;5019550;28;20149;-75
2021/01/12 11:09:22;;;;;;;621.10;271.80;;;76.80;2227.20;;;;;;5018536;28;20505;-76
2021/01/12 11:11:49;;;;;;;304.50;133.07;;;76.80;2227.20;;;;;;5018590;28;20037;-75
2021/01/12 11:17:36;;;;;;;287.10;131.40;;;76.90;2227.20;;;;;;5013170;28;20564;-75
2021/01/12 11:20:05;;;;;;;432.43;186.67;;;76.80;2227.20;;;;;;4999440;28;20038;-76
2021/01/12 11:22:31;;;;;;;440.53;199.63;;;76.90;2227.20;;;;;;4990230;28;20042;-75
2021/01/12 11:25:04;;;;;;;241.37;115.50;;;76.90;2227.20;;;;;;4974497;28;20133;-76
2021/01/12 11:27:31;;;;;;;276.05;134.18;;;77.00;2227.20;;;;;;4972344;28;20031;-76
2021/01/12 11:29:58;;;;;;;219.43;112.90;;;77.00;2227.20;;;;;;4973684;28;20034;-76
2021/01/12 11:32:25;;;;;;;262.07;132.53;;;77.00;2227.20;;;;;;4974531;28;20027;-76
2021/01/12 11:34:52;;;;;;;197.07;100.00;;;77.00;2227.20;;;;;;4974488;28;20369;-75
2021/01/12 11:37:18;;;;;;;209.50;102.57;;;77.00;2227.20;;;;;;4956970;28;20034;-76
2021/01/12 11:39:44;;;;;;;194.03;92.90;;;77.00;2227.20;;;;;;4958426;28;20037;-76
2021/01/12 11:42:12;;;;;;;211.07;103.70;;;77.00;2227.20;;;;;;4968122;28;20034;-75
2021/01/12 11:44:39;;;;;;;195.30;93.13;;;77.00;2227.20;;;;;;4987569;28;20094;-75
2021/01/12 11:47:06;;;;;;;200.77;100.93;;;76.90;2227.20;;;;;;4985435;28;20774;-76
2021/01/12 11:49:32;;;;;;;218.53;106.90;;;77.00;2227.20;;;;;;4965385;28;20401;-75
2021/01/12 11:51:59;;;;;;;208.50;106.00;;;77.00;2227.20;;;;;;4984814;28;20023;-77
2021/01/12 11:54:27;;;;;;;222.20;111.57;;;77.00;2227.20;;;;;;4990189;28;20038;-77
2021/01/12 11:56:57;;;;;;;198.03;99.07;;;77.00;2227.20;;;;;;4999476;28;20041;-75
2021/01/12 11:59:26;;;;;;;228.67;113.87;;;76.90;2227.20;;;;;;5013962;28;20022;-76
2021/01/12 12:01:54;;;;;;;190.03;95.90;;;76.90;2227.20;;;;;;5015115;28;20018;-78
2021/01/12 12:04:22;;;;;;;186.00;94.33;;;76.90;2227.20;;;;;;5022909;28;20026;-80
2021/01/12 12:06:50;;;;;;;214.13;109.93;;;76.90;2227.20;;;;;;5022120;28;20046;-76